sensor_id;sensor_type;location;lat;lon;timestamp;temperature;humidity
7399;DHT22;3740;50.700;7.184;2023-02-01T00:01:53;7.70;99.90
7399;DHT22;3740;50.700;7.184;2023-02-01T00:04:19;7.70;99.90
7399;DHT22;3740;50.700;7.184;2023-02-01T00:06:44;7.60;99.90
7399;DHT22;3740;50.700;7.184;2023-02-01T00:09:10;7.60;99.90
7399;DHT22;3740;50.700;7.184;2023-02-01T00:11:35;7.60;99.90
7399;DHT22;3740;50.700;7.184;2023-02-01T00:14:01;7.60;99.90
7399;DHT22;3740;50.700;7.184;2023-02-01T00:16:29;7.80;99.90
7399;DHT22;3740;50.700;7.184;2023-02-01T00:19:06;7.80;99.90
7399;DHT22;3740;50.700;7.184;2023-02-01T00:21:33;7.70;99.90
7399;DHT22;3740;50.700;7.184;2023-02-01T00:23:59;7.70;99.90
7399;DHT22;3740;50.700;7.184;2023-02-01T00:26:39;7.60;99.90
7399;DHT22;3740;50.700;7.184;2023-02-01T00:29:07;7.60;99.90
7399;DHT22;3740;50.700;7.184;2023-02-01T00:31:34;7.60;99.90
7399;DHT22;3740;50.700;7.184;2023-02-01T00:34:00;7.60;99.90
7399;DHT22;3740;50.700;7.184;2023-02-01T00:36:26;7.50;99.90
7399;DHT22;3740;50.700;7.184;2023-02-01T00:38:51;7.50;99.90
7399;DHT22;3740;50.700;7.184;2023-02-01T00:41:18;7.50;99.90
7399;DHT22;3740;50.700;7.184;2023-02-01T00:43:44;7.50;99.90
7399;DHT22;3740;50.700;7.184;2023-02-01T00:46:11;7.50;99.90
7399;DHT22;3740;50.700;7.184;2023-02-01T00:48:38;7.40;99.90
7399;DHT22;3740;50.700;7.184;2023-02-01T00:51:07;7.50;99.90
7399;DHT22;3740;50.700;7.184;2023-02-01T00:53:33;7.50;99.90
7399;DHT22;3740;50.700;7.184;2023-02-01T00:55:59;7.40;99.90
7399;DHT22;3740;50.700;7.184;2023-02-01T00:58:25;7.40;99.90
7399;DHT22;3740;50.700;7.184;2023-02-01T01:01:06;7.40;99.90
7399;DHT22;3740;50.700;7.184;2023-02-01T01:03:33;7.40;99.90
7399;DHT22;3740;50.700;7.184;2023-02-01T01:06:00;7.30;99.90
7399;DHT22;3740;50.700;7.184;2023-02-01T01:08:27;7.30;99.90
7399;DHT22;3740;50.700;7.184;2023-02-01T01:10:52;7.30;99.90
7399;DHT22;3740;50.700;7.184;2023-02-01T01:13:18;7.30;99.90
7399;DHT22;3740;50.700;7.184;2023-02-01T01:15:44;7.20;99.90
7399;DHT22;3740;50.700;7.184;2023-02-01T01:18:09;7.20;99.90
7399;DHT22;3740;50.700;7.184;2023-02-01T01:20:37;7.10;99.90
7399;DHT22;3740;50.700;7.184;2023-02-01T01:23:03;7.20;99.90
7399;DHT22;3740;50.700;7.184;2023-02-01T01:25:29;7.20;99.90
7399;DHT22;3740;50.700;7.184;2023-02-01T01:27:55;7.20;99.90
7399;DHT22;3740;50.700;7.184;2023-02-01T01:30:20;7.30;99.90
7399;DHT22;3740;50.700;7.184;2023-02-01T01:32:46;7.30;99.90
7399;DHT22;3740;50.700;7.184;2023-02-01T01:35:12;7.20;99.90
7399;DHT22;3740;50.700;7.184;2023-02-01T01:37:37;7.20;99.90
7399;DHT22;3740;50.700;7.184;2023-02-01T01:40:05;7.20;99.90
7399;DHT22;3740;50.700;7.184;2023-02-01T01:42:30;7.10;99.90
7399;DHT22;3740;50.700;7.184;2023-02-01T01:47:40;7.10;99.90
7399;DHT22;3740;50.700;7.184;2023-02-01T01:50:10;7.00;99.90
7399;DHT22;3740;50.700;7.184;2023-02-01T01:52:37;6.90;99.90
7399;DHT22;3740;50.700;7.184;2023-02-01T01:55:04;7.00;99.90
7399;DHT22;3740;50.700;7.184;2023-02-01T01:57:35;7.10;99.90
7399;DHT22;3740;50.700;7.184;2023-02-01T02:00:11;7.20;99.90
7399;DHT22;3740;50.700;7.184;2023-02-01T02:02:39;7.20;99.90
7399;DHT22;3740;50.700;7.184;2023-02-01T02:05:06;7.00;99.90
7399;DHT22;3740;50.700;7.184;2023-02-01T02:07:35;7.20;99.90
7399;DHT22;3740;50.700;7.184;2023-02-01T02:10:08;7.20;99.90
7399;DHT22;3740;50.700;7.184;2023-02-01T02:12:38;7.10;99.90
7399;DHT22;3740;50.700;7.184;2023-02-01T02:15:05;7.20;99.90
7399;DHT22;3740;50.700;7.184;2023-02-01T02:17:53;7.20;99.90
7399;DHT22;3740;50.700;7.184;2023-02-01T02:23:52;7.20;99.90
7399;DHT22;3740;50.700;7.184;2023-02-01T02:26:34;7.30;99.90
7399;DHT22;3740;50.700;7.184;2023-02-01T02:37:28;7.30;99.90
7399;DHT22;3740;50.700;7.184;2023-02-01T02:40:27;7.30;99.90
7399;DHT22;3740;50.700;7.184;2023-02-01T02:46:07;7.30;99.90
7399;DHT22;3740;50.700;7.184;2023-02-01T02:49:04;7.30;99.90
7399;DHT22;3740;50.700;7.184;2023-02-01T02:51:45;7.30;99.90
7399;DHT22;3740;50.700;7.184;2023-02-01T02:54:33;7.20;99.90
7399;DHT22;3740;50.700;7.184;2023-02-01T03:00:13;7.10;99.90
7399;DHT22;3740;50.700;7.184;2023-02-01T03:02:58;7.20;99.90
7399;DHT22;3740;50.700;7.184;2023-02-01T03:05:47;7.20;99.90
7399;DHT22;3740;50.700;7.184;2023-02-01T03:08:18;7.30;99.90
7399;DHT22;3740;50.700;7.184;2023-02-01T03:10:49;7.40;99.90
7399;DHT22;3740;50.700;7.184;2023-02-01T03:13:44;7.30;99.90
7399;DHT22;3740;50.700;7.184;2023-02-01T03:16:26;7.30;99.90
7399;DHT22;3740;50.700;7.184;2023-02-01T03:19:09;7.30;99.90
7399;DHT22;3740;50.700;7.184;2023-02-01T03:21:45;7.30;99.90
7399;DHT22;3740;50.700;7.184;2023-02-01T03:27:14;7.30;99.90
7399;DHT22;3740;50.700;7.184;2023-02-01T03:32:36;7.20;99.90
7399;DHT22;3740;50.700;7.184;2023-02-01T03:35:25;7.20;99.90
7399;DHT22;3740;50.700;7.184;2023-02-01T03:38:01;7.20;99.90
7399;DHT22;3740;50.700;7.184;2023-02-01T03:40:28;7.20;99.90
7399;DHT22;3740;50.700;7.184;2023-02-01T03:42:56;7.30;99.90
7399;DHT22;3740;50.700;7.184;2023-02-01T03:45:35;7.30;99.90
7399;DHT22;3740;50.700;7.184;2023-02-01T03:48:03;7.30;99.90
7399;DHT22;3740;50.700;7.184;2023-02-01T03:50:30;7.40;99.90
7399;DHT22;3740;50.700;7.184;2023-02-01T03:55:29;7.30;99.90
7399;DHT22;3740;50.700;7.184;2023-02-01T03:58:01;7.30;99.90
7399;DHT22;3740;50.700;7.184;2023-02-01T04:00:28;7.20;99.90
7399;DHT22;3740;50.700;7.184;2023-02-01T04:02:54;7.20;99.90
7399;DHT22;3740;50.700;7.184;2023-02-01T04:05:20;7.10;99.90
7399;DHT22;3740;50.700;7.184;2023-02-01T04:07:46;7.10;99.90
7399;DHT22;3740;50.700;7.184;2023-02-01T04:10:12;7.20;99.90
7399;DHT22;3740;50.700;7.184;2023-02-01T04:12:38;7.10;99.90
7399;DHT22;3740;50.700;7.184;2023-02-01T04:15:04;7.10;99.90
7399;DHT22;3740;50.700;7.184;2023-02-01T04:17:30;7.10;99.90
7399;DHT22;3740;50.700;7.184;2023-02-01T04:19:55;7.20;99.90
7399;DHT22;3740;50.700;7.184;2023-02-01T04:22:21;7.20;99.90
7399;DHT22;3740;50.700;7.184;2023-02-01T04:24:47;7.20;99.90
7399;DHT22;3740;50.700;7.184;2023-02-01T04:27:13;7.20;99.90
7399;DHT22;3740;50.700;7.184;2023-02-01T04:29:39;7.20;99.90
7399;DHT22;3740;50.700;7.184;2023-02-01T04:32:05;7.10;99.90
7399;DHT22;3740;50.700;7.184;2023-02-01T04:34:30;7.00;99.90
7399;DHT22;3740;50.700;7.184;2023-02-01T04:36:56;7.00;99.90
7399;DHT22;3740;50.700;7.184;2023-02-01T04:39:21;7.00;99.90
7399;DHT22;3740;50.700;7.184;2023-02-01T04:41:47;7.00;99.90
7399;DHT22;3740;50.700;7.184;2023-02-01T04:44:14;6.90;99.90
7399;DHT22;3740;50.700;7.184;2023-02-01T04:46:41;6.80;99.90
7399;DHT22;3740;50.700;7.184;2023-02-01T04:49:09;6.80;99.90
7399;DHT22;3740;50.700;7.184;2023-02-01T04:51:34;6.70;99.90
7399;DHT22;3740;50.700;7.184;2023-02-01T04:54:00;6.80;99.90
7399;DHT22;3740;50.700;7.184;2023-02-01T04:56:25;6.90;99.90
7399;DHT22;3740;50.700;7.184;2023-02-01T04:58:51;6.90;99.90
7399;DHT22;3740;50.700;7.184;2023-02-01T05:01:17;6.80;99.90
7399;DHT22;3740;50.700;7.184;2023-02-01T05:03:42;6.80;99.90
7399;DHT22;3740;50.700;7.184;2023-02-01T05:06:08;6.80;99.90
7399;DHT22;3740;50.700;7.184;2023-02-01T05:08:34;6.80;99.90
7399;DHT22;3740;50.700;7.184;2023-02-01T05:10:59;6.80;99.90
7399;DHT22;3740;50.700;7.184;2023-02-01T05:13:28;6.80;99.90
7399;DHT22;3740;50.700;7.184;2023-02-01T05:16:12;6.70;99.90
7399;DHT22;3740;50.700;7.184;2023-02-01T05:18:37;6.70;99.90
7399;DHT22;3740;50.700;7.184;2023-02-01T05:21:03;6.70;99.90
7399;DHT22;3740;50.700;7.184;2023-02-01T05:23:29;6.70;99.90
7399;DHT22;3740;50.700;7.184;2023-02-01T05:25:59;6.80;99.90
7399;DHT22;3740;50.700;7.184;2023-02-01T05:28:27;6.80;99.90
7399;DHT22;3740;50.700;7.184;2023-02-01T05:30:54;6.80;99.90
7399;DHT22;3740;50.700;7.184;2023-02-01T05:33:20;6.60;99.90
7399;DHT22;3740;50.700;7.184;2023-02-01T05:35:45;6.60;99.90
7399;DHT22;3740;50.700;7.184;2023-02-01T05:38:11;6.60;99.90
7399;DHT22;3740;50.700;7.184;2023-02-01T05:40:36;6.50;99.90
7399;DHT22;3740;50.700;7.184;2023-02-01T05:43:02;6.50;99.90
7399;DHT22;3740;50.700;7.184;2023-02-01T05:45:27;6.40;99.90
7399;DHT22;3740;50.700;7.184;2023-02-01T05:47:53;6.40;99.90
7399;DHT22;3740;50.700;7.184;2023-02-01T05:50:18;6.40;99.90
7399;DHT22;3740;50.700;7.184;2023-02-01T05:52:44;6.40;99.90
7399;DHT22;3740;50.700;7.184;2023-02-01T05:55:10;6.40;99.90
7399;DHT22;3740;50.700;7.184;2023-02-01T05:57:35;6.40;99.90
7399;DHT22;3740;50.700;7.184;2023-02-01T06:00:02;6.40;99.90
7399;DHT22;3740;50.700;7.184;2023-02-01T06:02:27;6.40;99.90
7399;DHT22;3740;50.700;7.184;2023-02-01T06:04:53;6.40;99.90
7399;DHT22;3740;50.700;7.184;2023-02-01T06:07:18;6.50;99.90
7399;DHT22;3740;50.700;7.184;2023-02-01T06:09:44;6.40;99.90
7399;DHT22;3740;50.700;7.184;2023-02-01T06:12:09;6.50;99.90
7399;DHT22;3740;50.700;7.184;2023-02-01T06:14:35;6.40;99.90
7399;DHT22;3740;50.700;7.184;2023-02-01T06:17:02;6.40;99.90
7399;DHT22;3740;50.700;7.184;2023-02-01T06:19:28;6.40;99.90
7399;DHT22;3740;50.700;7.184;2023-02-01T06:21:53;6.30;99.90
7399;DHT22;3740;50.700;7.184;2023-02-01T06:24:19;6.30;99.90
7399;DHT22;3740;50.700;7.184;2023-02-01T06:26:45;6.30;99.90
7399;DHT22;3740;50.700;7.184;2023-02-01T06:29:10;6.30;99.90
7399;DHT22;3740;50.700;7.184;2023-02-01T06:31:36;6.40;99.90
7399;DHT22;3740;50.700;7.184;2023-02-01T06:34:01;6.40;99.90
7399;DHT22;3740;50.700;7.184;2023-02-01T06:36:28;6.50;99.90
7399;DHT22;3740;50.700;7.184;2023-02-01T06:38:54;6.50;99.90
7399;DHT22;3740;50.700;7.184;2023-02-01T06:41:22;6.60;99.90
7399;DHT22;3740;50.700;7.184;2023-02-01T06:43:47;6.50;99.90
7399;DHT22;3740;50.700;7.184;2023-02-01T06:46:13;6.50;99.90
7399;DHT22;3740;50.700;7.184;2023-02-01T06:48:38;6.50;99.90
7399;DHT22;3740;50.700;7.184;2023-02-01T06:51:04;6.50;99.90
7399;DHT22;3740;50.700;7.184;2023-02-01T06:53:30;6.40;99.90
7399;DHT22;3740;50.700;7.184;2023-02-01T06:55:58;6.30;99.90
7399;DHT22;3740;50.700;7.184;2023-02-01T06:58:27;6.30;99.90
7399;DHT22;3740;50.700;7.184;2023-02-01T07:00:52;6.30;99.90
7399;DHT22;3740;50.700;7.184;2023-02-01T07:03:19;6.30;99.90
7399;DHT22;3740;50.700;7.184;2023-02-01T07:05:44;6.40;99.90
7399;DHT22;3740;50.700;7.184;2023-02-01T07:08:10;6.40;99.90
7399;DHT22;3740;50.700;7.184;2023-02-01T07:10:36;6.40;99.90
7399;DHT22;3740;50.700;7.184;2023-02-01T07:13:01;6.50;99.90
7399;DHT22;3740;50.700;7.184;2023-02-01T07:15:27;6.60;99.90
7399;DHT22;3740;50.700;7.184;2023-02-01T07:17:56;6.60;99.90
7399;DHT22;3740;50.700;7.184;2023-02-01T07:20:22;6.60;99.90
7399;DHT22;3740;50.700;7.184;2023-02-01T07:22:48;6.60;99.90
7399;DHT22;3740;50.700;7.184;2023-02-01T07:25:13;6.50;99.90
7399;DHT22;3740;50.700;7.184;2023-02-01T07:27:39;6.40;99.90
7399;DHT22;3740;50.700;7.184;2023-02-01T07:30:06;6.40;99.90
7399;DHT22;3740;50.700;7.184;2023-02-01T07:32:32;6.40;99.90
7399;DHT22;3740;50.700;7.184;2023-02-01T07:34:58;6.40;99.90
7399;DHT22;3740;50.700;7.184;2023-02-01T07:37:24;6.50;99.90
7399;DHT22;3740;50.700;7.184;2023-02-01T07:39:50;6.50;99.90
7399;DHT22;3740;50.700;7.184;2023-02-01T07:42:16;6.40;99.90
7399;DHT22;3740;50.700;7.184;2023-02-01T07:44:42;6.30;99.90
7399;DHT22;3740;50.700;7.184;2023-02-01T07:47:07;6.30;99.90
7399;DHT22;3740;50.700;7.184;2023-02-01T07:49:33;6.40;99.90
7399;DHT22;3740;50.700;7.184;2023-02-01T07:51:58;6.50;99.90
7399;DHT22;3740;50.700;7.184;2023-02-01T07:54:24;6.60;99.90
7399;DHT22;3740;50.700;7.184;2023-02-01T07:56:49;6.70;99.90
7399;DHT22;3740;50.700;7.184;2023-02-01T07:59:15;6.80;99.90
7399;DHT22;3740;50.700;7.184;2023-02-01T08:01:41;6.70;99.90
7399;DHT22;3740;50.700;7.184;2023-02-01T08:04:10;6.70;99.90
7399;DHT22;3740;50.700;7.184;2023-02-01T08:06:36;6.70;99.90
7399;DHT22;3740;50.700;7.184;2023-02-01T08:09:02;6.70;99.90
7399;DHT22;3740;50.700;7.184;2023-02-01T08:11:29;6.70;99.90
7399;DHT22;3740;50.700;7.184;2023-02-01T08:13:55;6.70;99.90
7399;DHT22;3740;50.700;7.184;2023-02-01T08:16:21;6.70;99.90
7399;DHT22;3740;50.700;7.184;2023-02-01T08:18:46;6.70;99.90
7399;DHT22;3740;50.700;7.184;2023-02-01T08:21:15;6.60;99.90
7399;DHT22;3740;50.700;7.184;2023-02-01T08:23:42;6.60;99.90
7399;DHT22;3740;50.700;7.184;2023-02-01T08:26:22;6.50;99.90
7399;DHT22;3740;50.700;7.184;2023-02-01T08:28:54;6.50;99.90
7399;DHT22;3740;50.700;7.184;2023-02-01T08:31:21;6.70;99.90
7399;DHT22;3740;50.700;7.184;2023-02-01T08:33:53;6.80;99.90
7399;DHT22;3740;50.700;7.184;2023-02-01T08:36:19;6.90;99.90
7399;DHT22;3740;50.700;7.184;2023-02-01T08:38:46;6.80;99.90
7399;DHT22;3740;50.700;7.184;2023-02-01T08:41:14;6.60;99.90
7399;DHT22;3740;50.700;7.184;2023-02-01T08:43:41;6.70;99.90
7399;DHT22;3740;50.700;7.184;2023-02-01T08:46:07;6.70;99.90
7399;DHT22;3740;50.700;7.184;2023-02-01T08:48:34;6.70;99.90
7399;DHT22;3740;50.700;7.184;2023-02-01T08:51:19;6.70;99.90
7399;DHT22;3740;50.700;7.184;2023-02-01T08:53:46;6.80;99.90
7399;DHT22;3740;50.700;7.184;2023-02-01T08:56:13;6.70;99.90
7399;DHT22;3740;50.700;7.184;2023-02-01T08:58:39;6.80;99.90
7399;DHT22;3740;50.700;7.184;2023-02-01T09:01:07;6.80;99.90
7399;DHT22;3740;50.700;7.184;2023-02-01T09:03:33;6.70;99.90
7399;DHT22;3740;50.700;7.184;2023-02-01T09:06:08;6.80;99.90
7399;DHT22;3740;50.700;7.184;2023-02-01T09:08:34;6.80;99.90
7399;DHT22;3740;50.700;7.184;2023-02-01T09:11:01;6.90;99.90
7399;DHT22;3740;50.700;7.184;2023-02-01T09:13:27;7.00;99.90
7399;DHT22;3740;50.700;7.184;2023-02-01T09:15:53;7.00;99.90
7399;DHT22;3740;50.700;7.184;2023-02-01T09:18:19;7.10;99.90
7399;DHT22;3740;50.700;7.184;2023-02-01T09:20:45;7.10;99.90
7399;DHT22;3740;50.700;7.184;2023-02-01T09:23:10;7.10;99.90
7399;DHT22;3740;50.700;7.184;2023-02-01T09:25:39;7.00;99.90
7399;DHT22;3740;50.700;7.184;2023-02-01T09:28:05;6.90;99.90
7399;DHT22;3740;50.700;7.184;2023-02-01T09:30:35;7.00;99.90
7399;DHT22;3740;50.700;7.184;2023-02-01T09:33:01;7.00;99.90
7399;DHT22;3740;50.700;7.184;2023-02-01T09:35:27;7.00;99.90
7399;DHT22;3740;50.700;7.184;2023-02-01T09:37:53;7.00;99.90
7399;DHT22;3740;50.700;7.184;2023-02-01T09:40:19;7.10;99.90
7399;DHT22;3740;50.700;7.184;2023-02-01T09:45:32;7.90;99.90
7399;DHT22;3740;50.700;7.184;2023-02-01T09:48:20;7.40;99.90
7399;DHT22;3740;50.700;7.184;2023-02-01T09:50:56;7.40;99.90
7399;DHT22;3740;50.700;7.184;2023-02-01T09:53:30;7.40;99.90
7399;DHT22;3740;50.700;7.184;2023-02-01T09:56:18;7.20;99.90
7399;DHT22;3740;50.700;7.184;2023-02-01T09:58:52;7.30;99.90
7399;DHT22;3740;50.700;7.184;2023-02-01T10:01:21;7.20;99.90
7399;DHT22;3740;50.700;7.184;2023-02-01T10:03:48;7.20;99.90
7399;DHT22;3740;50.700;7.184;2023-02-01T10:15:02;7.30;99.90
7399;DHT22;3740;50.700;7.184;2023-02-01T10:26:12;7.70;99.90
7399;DHT22;3740;50.700;7.184;2023-02-01T10:28:42;7.80;99.90
7399;DHT22;3740;50.700;7.184;2023-02-01T10:31:10;7.90;99.90
7399;DHT22;3740;50.700;7.184;2023-02-01T10:33:50;8.00;99.90
7399;DHT22;3740;50.700;7.184;2023-02-01T10:36:36;8.20;99.90
7399;DHT22;3740;50.700;7.184;2023-02-01T10:39:05;8.40;99.90
7399;DHT22;3740;50.700;7.184;2023-02-01T10:41:35;8.40;99.90
7399;DHT22;3740;50.700;7.184;2023-02-01T10:44:03;8.30;99.90
7399;DHT22;3740;50.700;7.184;2023-02-01T10:46:31;8.60;99.90
7399;DHT22;3740;50.700;7.184;2023-02-01T10:48:59;9.20;99.90
7399;DHT22;3740;50.700;7.184;2023-02-01T10:51:38;9.60;99.90
7399;DHT22;3740;50.700;7.184;2023-02-01T10:54:35;10.20;99.90
7399;DHT22;3740;50.700;7.184;2023-02-01T10:57:10;11.30;99.90
7399;DHT22;3740;50.700;7.184;2023-02-01T10:59:37;11.60;99.90
7399;DHT22;3740;50.700;7.184;2023-02-01T11:02:31;11.80;99.90
7399;DHT22;3740;50.700;7.184;2023-02-01T11:05:12;12.40;99.90
7399;DHT22;3740;50.700;7.184;2023-02-01T11:07:47;11.80;99.90
7399;DHT22;3740;50.700;7.184;2023-02-01T11:10:40;12.00;99.90
7399;DHT22;3740;50.700;7.184;2023-02-01T11:13:17;12.20;99.90
7399;DHT22;3740;50.700;7.184;2023-02-01T11:15:46;11.20;99.90
7399;DHT22;3740;50.700;7.184;2023-02-01T11:18:27;10.20;99.90
7399;DHT22;3740;50.700;7.184;2023-02-01T11:20:53;9.50;99.90
7399;DHT22;3740;50.700;7.184;2023-02-01T11:23:24;9.50;99.90
7399;DHT22;3740;50.700;7.184;2023-02-01T11:25:56;9.70;99.90
7399;DHT22;3740;50.700;7.184;2023-02-01T11:28:32;9.50;99.90
7399;DHT22;3740;50.700;7.184;2023-02-01T11:31:04;9.10;99.90
7399;DHT22;3740;50.700;7.184;2023-02-01T11:33:32;9.30;99.90
7399;DHT22;3740;50.700;7.184;2023-02-01T11:36:06;9.10;99.90
7399;DHT22;3740;50.700;7.184;2023-02-01T11:38:33;8.80;99.90
7399;DHT22;3740;50.700;7.184;2023-02-01T11:41:12;8.50;99.90
7399;DHT22;3740;50.700;7.184;2023-02-01T11:46:24;8.40;99.90
7399;DHT22;3740;50.700;7.184;2023-02-01T11:48:53;8.80;99.90
7399;DHT22;3740;50.700;7.184;2023-02-01T11:51:30;9.10;99.90
7399;DHT22;3740;50.700;7.184;2023-02-01T11:56:58;9.40;99.90
7399;DHT22;3740;50.700;7.184;2023-02-01T11:59:58;9.30;99.90
7399;DHT22;3740;50.700;7.184;2023-02-01T12:02:53;9.00;99.90
7399;DHT22;3740;50.700;7.184;2023-02-01T12:05:25;9.10;99.90
7399;DHT22;3740;50.700;7.184;2023-02-01T12:08:16;9.00;99.90
7399;DHT22;3740;50.700;7.184;2023-02-01T12:11:32;8.90;99.90
7399;DHT22;3740;50.700;7.184;2023-02-01T12:13:55;8.70;99.90
7399;DHT22;3740;50.700;7.184;2023-02-01T12:27:01;8.40;99.90
7399;DHT22;3740;50.700;7.184;2023-02-01T12:32:29;8.20;99.90
7399;DHT22;3740;50.700;7.184;2023-02-01T12:43:58;8.00;99.90
7399;DHT22;3740;50.700;7.184;2023-02-01T12:46:33;8.00;99.90
7399;DHT22;3740;50.700;7.184;2023-02-01T12:49:22;8.10;99.90
7399;DHT22;3740;50.700;7.184;2023-02-01T12:51:54;8.20;99.90
7399;DHT22;3740;50.700;7.184;2023-02-01T12:57:01;8.40;99.90
7399;DHT22;3740;50.700;7.184;2023-02-01T13:02:39;8.40;99.90
7399;DHT22;3740;50.700;7.184;2023-02-01T13:05:15;8.30;99.90
7399;DHT22;3740;50.700;7.184;2023-02-01T13:10:41;8.00;99.90
7399;DHT22;3740;50.700;7.184;2023-02-01T13:15:46;8.10;99.90
7399;DHT22;3740;50.700;7.184;2023-02-01T13:18:18;8.10;99.90
7399;DHT22;3740;50.700;7.184;2023-02-01T13:20:59;8.30;99.90
7399;DHT22;3740;50.700;7.184;2023-02-01T13:23:33;8.40;99.90
7399;DHT22;3740;50.700;7.184;2023-02-01T13:25:59;8.50;99.90
7399;DHT22;3740;50.700;7.184;2023-02-01T13:28:28;8.50;99.90
7399;DHT22;3740;50.700;7.184;2023-02-01T13:31:32;8.50;99.90
7399;DHT22;3740;50.700;7.184;2023-02-01T13:42:33;8.40;99.90
7399;DHT22;3740;50.700;7.184;2023-02-01T13:45:23;8.40;99.90
7399;DHT22;3740;50.700;7.184;2023-02-01T13:47:52;8.40;99.90
7399;DHT22;3740;50.700;7.184;2023-02-01T13:50:37;8.30;99.90
7399;DHT22;3740;50.700;7.184;2023-02-01T13:55:39;8.10;99.90
7399;DHT22;3740;50.700;7.184;2023-02-01T13:58:18;8.10;99.90
7399;DHT22;3740;50.700;7.184;2023-02-01T14:00:45;7.90;99.90
7399;DHT22;3740;50.700;7.184;2023-02-01T14:03:13;7.80;99.90
7399;DHT22;3740;50.700;7.184;2023-02-01T14:08:11;7.90;99.90
7399;DHT22;3740;50.700;7.184;2023-02-01T14:10:54;7.80;99.90
7399;DHT22;3740;50.700;7.184;2023-02-01T14:13:28;7.90;99.90
7399;DHT22;3740;50.700;7.184;2023-02-01T14:18:49;7.90;99.90
7399;DHT22;3740;50.700;7.184;2023-02-01T14:23:45;8.10;99.90
7399;DHT22;3740;50.700;7.184;2023-02-01T14:26:20;8.20;99.90
7399;DHT22;3740;50.700;7.184;2023-02-01T14:34:13;8.10;99.90
7399;DHT22;3740;50.700;7.184;2023-02-01T14:36:47;8.10;99.90
7399;DHT22;3740;50.700;7.184;2023-02-01T14:42:27;8.20;99.90
7399;DHT22;3740;50.700;7.184;2023-02-01T14:44:56;8.20;99.90
7399;DHT22;3740;50.700;7.184;2023-02-01T14:52:39;8.40;99.90
7399;DHT22;3740;50.700;7.184;2023-02-01T14:55:40;8.50;99.90
7399;DHT22;3740;50.700;7.184;2023-02-01T15:00:56;8.40;99.90
7399;DHT22;3740;50.700;7.184;2023-02-01T15:04:09;8.40;99.90
7399;DHT22;3740;50.700;7.184;2023-02-01T15:06:40;8.40;99.90
7399;DHT22;3740;50.700;7.184;2023-02-01T15:14:23;8.30;99.90
7399;DHT22;3740;50.700;7.184;2023-02-01T15:16:48;8.30;99.90
7399;DHT22;3740;50.700;7.184;2023-02-01T15:19:20;8.20;99.90
7399;DHT22;3740;50.700;7.184;2023-02-01T15:21:51;8.40;99.90
7399;DHT22;3740;50.700;7.184;2023-02-01T15:24:24;8.40;99.90
7399;DHT22;3740;50.700;7.184;2023-02-01T15:26:52;8.40;99.90
7399;DHT22;3740;50.700;7.184;2023-02-01T15:29:20;8.50;99.90
7399;DHT22;3740;50.700;7.184;2023-02-01T15:31:50;8.60;99.90
7399;DHT22;3740;50.700;7.184;2023-02-01T15:34:18;8.60;99.90
7399;DHT22;3740;50.700;7.184;2023-02-01T15:36:45;8.60;99.90
7399;DHT22;3740;50.700;7.184;2023-02-01T15:39:16;8.60;99.90
7399;DHT22;3740;50.700;7.184;2023-02-01T15:41:50;8.50;99.90
7399;DHT22;3740;50.700;7.184;2023-02-01T15:44:27;8.40;99.90
7399;DHT22;3740;50.700;7.184;2023-02-01T15:46:54;8.40;99.90
7399;DHT22;3740;50.700;7.184;2023-02-01T15:49:38;8.40;99.90
7399;DHT22;3740;50.700;7.184;2023-02-01T15:52:22;8.40;99.90
7399;DHT22;3740;50.700;7.184;2023-02-01T15:54:55;8.40;99.90
7399;DHT22;3740;50.700;7.184;2023-02-01T15:57:30;8.40;99.90
7399;DHT22;3740;50.700;7.184;2023-02-01T15:59:59;8.40;99.90
7399;DHT22;3740;50.700;7.184;2023-02-01T16:02:38;8.50;99.90
7399;DHT22;3740;50.700;7.184;2023-02-01T16:08:25;8.50;99.90
7399;DHT22;3740;50.700;7.184;2023-02-01T16:10:53;8.40;99.90
7399;DHT22;3740;50.700;7.184;2023-02-01T16:13:20;8.10;99.90
7399;DHT22;3740;50.700;7.184;2023-02-01T16:15:47;7.90;99.90
7399;DHT22;3740;50.700;7.184;2023-02-01T16:18:14;7.80;99.90
7399;DHT22;3740;50.700;7.184;2023-02-01T16:20:41;7.70;99.90
7399;DHT22;3740;50.700;7.184;2023-02-01T16:23:08;7.70;99.90
7399;DHT22;3740;50.700;7.184;2023-02-01T16:25:35;7.60;99.90
7399;DHT22;3740;50.700;7.184;2023-02-01T16:28:01;7.60;99.90
7399;DHT22;3740;50.700;7.184;2023-02-01T16:30:26;7.60;99.90
7399;DHT22;3740;50.700;7.184;2023-02-01T16:32:56;7.60;99.90
7399;DHT22;3740;50.700;7.184;2023-02-01T16:35:36;7.60;99.90
7399;DHT22;3740;50.700;7.184;2023-02-01T16:38:10;7.60;99.90
7399;DHT22;3740;50.700;7.184;2023-02-01T16:40:39;7.50;99.90
7399;DHT22;3740;50.700;7.184;2023-02-01T16:43:15;7.50;99.90
7399;DHT22;3740;50.700;7.184;2023-02-01T16:45:42;7.40;99.90
7399;DHT22;3740;50.700;7.184;2023-02-01T16:48:25;7.40;99.90
7399;DHT22;3740;50.700;7.184;2023-02-01T16:50:54;7.30;99.90
7399;DHT22;3740;50.700;7.184;2023-02-01T16:53:21;7.20;99.90
7399;DHT22;3740;50.700;7.184;2023-02-01T16:55:47;7.10;99.90
7399;DHT22;3740;50.700;7.184;2023-02-01T16:58:18;7.10;99.90
7399;DHT22;3740;50.700;7.184;2023-02-01T17:00:44;7.10;99.90
7399;DHT22;3740;50.700;7.184;2023-02-01T17:03:11;7.10;99.90
7399;DHT22;3740;50.700;7.184;2023-02-01T17:05:43;7.10;99.90
7399;DHT22;3740;50.700;7.184;2023-02-01T17:08:10;7.00;99.90
7399;DHT22;3740;50.700;7.184;2023-02-01T17:10:37;7.00;99.90
7399;DHT22;3740;50.700;7.184;2023-02-01T17:13:02;6.80;99.90
7399;DHT22;3740;50.700;7.184;2023-02-01T17:15:32;6.80;99.90
7399;DHT22;3740;50.700;7.184;2023-02-01T17:18:02;6.80;99.90
7399;DHT22;3740;50.700;7.184;2023-02-01T17:20:29;6.80;99.90
7399;DHT22;3740;50.700;7.184;2023-02-01T17:22:57;6.80;99.90
7399;DHT22;3740;50.700;7.184;2023-02-01T17:25:23;6.80;99.90
7399;DHT22;3740;50.700;7.184;2023-02-01T17:27:51;6.70;99.90
7399;DHT22;3740;50.700;7.184;2023-02-01T17:30:17;6.70;99.90
7399;DHT22;3740;50.700;7.184;2023-02-01T17:32:43;6.70;99.90
7399;DHT22;3740;50.700;7.184;2023-02-01T17:35:21;6.60;99.90
7399;DHT22;3740;50.700;7.184;2023-02-01T17:37:47;6.70;99.90
7399;DHT22;3740;50.700;7.184;2023-02-01T17:40:13;6.70;99.90
7399;DHT22;3740;50.700;7.184;2023-02-01T17:42:39;6.80;99.90
7399;DHT22;3740;50.700;7.184;2023-02-01T17:45:35;6.80;99.90
7399;DHT22;3740;50.700;7.184;2023-02-01T17:48:07;6.90;99.90
7399;DHT22;3740;50.700;7.184;2023-02-01T17:50:35;6.90;99.90
7399;DHT22;3740;50.700;7.184;2023-02-01T17:53:01;6.90;99.90
7399;DHT22;3740;50.700;7.184;2023-02-01T17:55:28;6.80;99.90
7399;DHT22;3740;50.700;7.184;2023-02-01T17:57:53;6.80;99.90
7399;DHT22;3740;50.700;7.184;2023-02-01T18:00:19;6.90;99.90
7399;DHT22;3740;50.700;7.184;2023-02-01T18:02:46;6.80;99.90
7399;DHT22;3740;50.700;7.184;2023-02-01T18:05:21;6.70;99.90
7399;DHT22;3740;50.700;7.184;2023-02-01T18:07:47;6.80;99.90
7399;DHT22;3740;50.700;7.184;2023-02-01T18:10:13;6.80;99.90
7399;DHT22;3740;50.700;7.184;2023-02-01T18:12:38;6.80;99.90
7399;DHT22;3740;50.700;7.184;2023-02-01T18:15:19;6.90;99.90
7399;DHT22;3740;50.700;7.184;2023-02-01T18:17:45;6.90;99.90
7399;DHT22;3740;50.700;7.184;2023-02-01T18:20:16;7.00;99.90
7399;DHT22;3740;50.700;7.184;2023-02-01T18:22:43;7.00;99.90
7399;DHT22;3740;50.700;7.184;2023-02-01T18:25:30;7.00;99.90
7399;DHT22;3740;50.700;7.184;2023-02-01T18:28:01;7.00;99.90
7399;DHT22;3740;50.700;7.184;2023-02-01T18:30:31;7.10;99.90
7399;DHT22;3740;50.700;7.184;2023-02-01T18:32:58;7.10;99.90
7399;DHT22;3740;50.700;7.184;2023-02-01T18:35:26;7.10;99.90
7399;DHT22;3740;50.700;7.184;2023-02-01T18:37:53;7.20;99.90
7399;DHT22;3740;50.700;7.184;2023-02-01T18:40:29;7.10;99.90
7399;DHT22;3740;50.700;7.184;2023-02-01T18:42:57;7.10;99.90
7399;DHT22;3740;50.700;7.184;2023-02-01T18:45:32;7.10;99.90
7399;DHT22;3740;50.700;7.184;2023-02-01T18:47:59;7.00;99.90
7399;DHT22;3740;50.700;7.184;2023-02-01T18:50:26;7.10;99.90